CheckWX is a tool to help pilots better visualize weather data.  It is not intended as a substitute for an official pre-flight weather briefing.

12:54:43 UTC

KBCB METAR
Virginia Tech / Montgomery Executive Airport
Blacksburg, Virginia, USA
Current

20 mins ago

KBCB 181235Z AUTO 29008G14KT 10SM SCT019 BKN027 05/03 A2995 RMK AO2 T00500030
Observed
Feb-18 @ 12:35 UTC
Wind
  • 290° at 8 KTS
  • Gusting to 14 KTS
Visibility
10 SM
Flight Rules
MVFR
Cloud Levels
  • Scattered at 1,900' AGL
  • Broken at 2,700' AGL
Temperature
C / 41°F
Dewpoint
C / 37°F
Humidity
87%
Altimeter
29.95" Hg
Pressure
1014.22 hPa
Previous

40 mins ago

KBCB 181215Z AUTO 28008G17KT 10SM SCT016 SCT023 BKN029 05/04 A2993 RMK AO2 T00500040
Observed
Feb-18 @ 12:15 UTC
Wind
  • 280° at 8 KTS
  • Gusting to 17 KTS
Visibility
10 SM
Flight Rules
MVFR
Cloud Levels
  • Scattered at 1,600' AGL
  • Scattered at 2,300' AGL
  • Broken at 2,900' AGL
Temperature
C / 41°F
Dewpoint
C / 39°F
Humidity
93%
Altimeter
29.93" Hg
Pressure
1013.52 hPa
Previous

60 mins ago

KBCB 181155Z AUTO 28006G16KT 240V310 10SM SCT012 BKN017 OVC029 05/04 A2993 RMK AO2 60005 70067 T00520042 10055 20020
Observed
Feb-18 @ 11:55 UTC
Wind
  • 280° at 6 KTS
  • Gusting to 16 KTS
Visibility
10 SM
Flight Rules
MVFR
Cloud Levels
  • Scattered at 1,200' AGL
  • Broken at 1,700' AGL
  • Overcast at 2,900' AGL
Temperature
C / 41°F
Dewpoint
C / 39°F
Humidity
93%
Altimeter
29.93" Hg
Pressure
1013.52 hPa